sensor_id;sensor_type;location;lat;lon;timestamp;P1;durP1;ratioP1;P2;durP2;ratioP2
33902;SDS011;20194;50.950;5.346;2023-05-28T00:00:10;20.88;;;8.13;;
33902;SDS011;20194;50.950;5.346;2023-05-28T00:02:37;20.70;;;7.68;;
33902;SDS011;20194;50.950;5.346;2023-05-28T00:05:03;13.30;;;8.15;;
33902;SDS011;20194;50.950;5.346;2023-05-28T00:07:29;23.35;;;8.43;;
33902;SDS011;20194;50.950;5.346;2023-05-28T00:09:56;21.48;;;8.43;;
33902;SDS011;20194;50.950;5.346;2023-05-28T00:12:22;17.17;;;8.10;;
33902;SDS011;20194;50.950;5.346;2023-05-28T00:14:47;21.00;;;7.85;;
33902;SDS011;20194;50.950;5.346;2023-05-28T00:17:14;23.63;;;7.95;;
33902;SDS011;20194;50.950;5.346;2023-05-28T00:19:43;18.17;;;8.02;;
33902;SDS011;20194;50.950;5.346;2023-05-28T00:22:09;17.40;;;7.72;;
33902;SDS011;20194;50.950;5.346;2023-05-28T00:24:35;19.38;;;7.97;;
33902;SDS011;20194;50.950;5.346;2023-05-28T00:27:01;14.80;;;7.63;;
33902;SDS011;20194;50.950;5.346;2023-05-28T00:29:28;14.70;;;7.55;;
33902;SDS011;20194;50.950;5.346;2023-05-28T00:31:54;16.00;;;7.50;;
33902;SDS011;20194;50.950;5.346;2023-05-28T00:34:21;19.30;;;8.20;;
33902;SDS011;20194;50.950;5.346;2023-05-28T00:36:48;19.60;;;7.95;;
33902;SDS011;20194;50.950;5.346;2023-05-28T00:39:14;23.23;;;8.13;;
33902;SDS011;20194;50.950;5.346;2023-05-28T00:41:43;23.02;;;8.77;;
33902;SDS011;20194;50.950;5.346;2023-05-28T00:44:09;25.20;;;9.57;;
33902;SDS011;20194;50.950;5.346;2023-05-28T00:46:36;20.60;;;8.32;;
33902;SDS011;20194;50.950;5.346;2023-05-28T00:49:02;21.10;;;7.78;;
33902;SDS011;20194;50.950;5.346;2023-05-28T00:51:28;22.83;;;9.55;;
33902;SDS011;20194;50.950;5.346;2023-05-28T00:53:56;21.73;;;8.73;;
33902;SDS011;20194;50.950;5.346;2023-05-28T00:56:22;17.52;;;8.93;;
33902;SDS011;20194;50.950;5.346;2023-05-28T00:58:49;25.35;;;9.27;;
33902;SDS011;20194;50.950;5.346;2023-05-28T01:01:15;29.30;;;9.65;;
33902;SDS011;20194;50.950;5.346;2023-05-28T01:03:42;24.08;;;10.68;;
33902;SDS011;20194;50.950;5.346;2023-05-28T01:06:09;23.45;;;10.95;;
33902;SDS011;20194;50.950;5.346;2023-05-28T01:08:38;22.67;;;10.65;;
33902;SDS011;20194;50.950;5.346;2023-05-28T01:11:05;19.50;;;10.18;;
33902;SDS011;20194;50.950;5.346;2023-05-28T01:13:36;26.02;;;11.15;;
33902;SDS011;20194;50.950;5.346;2023-05-28T01:16:04;20.80;;;10.55;;
33902;SDS011;20194;50.950;5.346;2023-05-28T01:18:30;28.33;;;12.25;;
33902;SDS011;20194;50.950;5.346;2023-05-28T01:20:59;28.70;;;11.60;;
33902;SDS011;20194;50.950;5.346;2023-05-28T01:23:29;24.50;;;12.45;;
33902;SDS011;20194;50.950;5.346;2023-05-28T01:26:08;23.77;;;11.50;;
33902;SDS011;20194;50.950;5.346;2023-05-28T01:28:34;21.98;;;11.35;;
33902;SDS011;20194;50.950;5.346;2023-05-28T01:31:00;23.23;;;11.25;;
33902;SDS011;20194;50.950;5.346;2023-05-28T01:33:26;24.95;;;11.32;;
33902;SDS011;20194;50.950;5.346;2023-05-28T01:35:52;30.63;;;11.55;;
33902;SDS011;20194;50.950;5.346;2023-05-28T01:38:21;25.98;;;10.98;;
33902;SDS011;20194;50.950;5.346;2023-05-28T01:40:48;22.73;;;10.65;;
33902;SDS011;20194;50.950;5.346;2023-05-28T01:43:15;21.98;;;10.13;;
33902;SDS011;20194;50.950;5.346;2023-05-28T01:45:41;30.58;;;10.07;;
33902;SDS011;20194;50.950;5.346;2023-05-28T01:48:08;22.55;;;9.10;;
33902;SDS011;20194;50.950;5.346;2023-05-28T01:50:35;18.38;;;9.13;;
33902;SDS011;20194;50.950;5.346;2023-05-28T01:53:00;25.92;;;9.18;;
33902;SDS011;20194;50.950;5.346;2023-05-28T01:55:27;21.80;;;8.73;;
33902;SDS011;20194;50.950;5.346;2023-05-28T01:57:52;19.90;;;8.52;;
33902;SDS011;20194;50.950;5.346;2023-05-28T02:00:18;24.23;;;9.05;;
33902;SDS011;20194;50.950;5.346;2023-05-28T02:02:44;17.42;;;8.45;;
33902;SDS011;20194;50.950;5.346;2023-05-28T02:05:10;19.60;;;8.40;;
33902;SDS011;20194;50.950;5.346;2023-05-28T02:07:36;21.80;;;9.32;;
33902;SDS011;20194;50.950;5.346;2023-05-28T02:10:02;13.65;;;7.75;;
33902;SDS011;20194;50.950;5.346;2023-05-28T02:12:28;18.05;;;7.65;;
33902;SDS011;20194;50.950;5.346;2023-05-28T02:14:53;18.95;;;8.48;;
33902;SDS011;20194;50.950;5.346;2023-05-28T02:17:19;17.85;;;8.77;;
33902;SDS011;20194;50.950;5.346;2023-05-28T02:19:45;17.08;;;7.70;;
33902;SDS011;20194;50.950;5.346;2023-05-28T02:22:11;15.93;;;8.38;;
33902;SDS011;20194;50.950;5.346;2023-05-28T02:24:37;18.42;;;8.18;;
33902;SDS011;20194;50.950;5.346;2023-05-28T02:27:04;19.15;;;8.15;;
33902;SDS011;20194;50.950;5.346;2023-05-28T02:29:34;15.00;;;7.80;;
33902;SDS011;20194;50.950;5.346;2023-05-28T02:32:00;16.45;;;8.20;;
33902;SDS011;20194;50.950;5.346;2023-05-28T02:34:27;15.30;;;7.78;;
33902;SDS011;20194;50.950;5.346;2023-05-28T02:36:56;26.80;;;9.30;;
33902;SDS011;20194;50.950;5.346;2023-05-28T02:39:22;23.80;;;8.98;;
33902;SDS011;20194;50.950;5.346;2023-05-28T02:41:49;16.38;;;8.45;;
33902;SDS011;20194;50.950;5.346;2023-05-28T02:44:14;18.40;;;8.68;;
33902;SDS011;20194;50.950;5.346;2023-05-28T02:46:40;27.38;;;8.68;;
33902;SDS011;20194;50.950;5.346;2023-05-28T02:49:06;19.80;;;8.48;;
33902;SDS011;20194;50.950;5.346;2023-05-28T02:51:32;22.60;;;9.18;;
33902;SDS011;20194;50.950;5.346;2023-05-28T02:53:58;22.00;;;9.30;;
33902;SDS011;20194;50.950;5.346;2023-05-28T02:56:23;17.95;;;9.18;;
33902;SDS011;20194;50.950;5.346;2023-05-28T02:58:49;22.33;;;9.98;;
33902;SDS011;20194;50.950;5.346;2023-05-28T03:01:16;15.85;;;8.05;;
33902;SDS011;20194;50.950;5.346;2023-05-28T03:03:42;19.63;;;9.27;;
33902;SDS011;20194;50.950;5.346;2023-05-28T03:06:08;23.15;;;9.20;;
33902;SDS011;20194;50.950;5.346;2023-05-28T03:08:33;21.27;;;9.25;;
33902;SDS011;20194;50.950;5.346;2023-05-28T03:10:59;16.85;;;7.47;;
33902;SDS011;20194;50.950;5.346;2023-05-28T03:13:25;22.15;;;8.60;;
33902;SDS011;20194;50.950;5.346;2023-05-28T03:15:51;16.67;;;8.65;;
33902;SDS011;20194;50.950;5.346;2023-05-28T03:18:17;15.93;;;8.07;;
33902;SDS011;20194;50.950;5.346;2023-05-28T03:20:42;23.00;;;8.70;;
33902;SDS011;20194;50.950;5.346;2023-05-28T03:23:08;18.83;;;8.85;;
33902;SDS011;20194;50.950;5.346;2023-05-28T03:25:34;20.60;;;8.68;;
33902;SDS011;20194;50.950;5.346;2023-05-28T03:27:59;19.48;;;8.38;;
33902;SDS011;20194;50.950;5.346;2023-05-28T03:30:25;21.75;;;8.90;;
33902;SDS011;20194;50.950;5.346;2023-05-28T03:32:51;16.88;;;8.43;;
33902;SDS011;20194;50.950;5.346;2023-05-28T03:35:17;14.48;;;8.27;;
33902;SDS011;20194;50.950;5.346;2023-05-28T03:37:43;19.48;;;8.40;;
33902;SDS011;20194;50.950;5.346;2023-05-28T03:40:09;22.27;;;9.02;;
33902;SDS011;20194;50.950;5.346;2023-05-28T03:42:36;17.48;;;8.77;;
33902;SDS011;20194;50.950;5.346;2023-05-28T03:45:02;19.45;;;9.57;;
33902;SDS011;20194;50.950;5.346;2023-05-28T03:47:28;19.75;;;8.95;;
33902;SDS011;20194;50.950;5.346;2023-05-28T03:49:56;16.33;;;8.32;;
33902;SDS011;20194;50.950;5.346;2023-05-28T03:52:23;16.38;;;8.38;;
33902;SDS011;20194;50.950;5.346;2023-05-28T03:54:49;21.27;;;9.32;;
33902;SDS011;20194;50.950;5.346;2023-05-28T03:57:15;16.10;;;8.13;;
33902;SDS011;20194;50.950;5.346;2023-05-28T03:59:41;20.30;;;9.32;;
33902;SDS011;20194;50.950;5.346;2023-05-28T04:02:06;21.30;;;8.93;;
33902;SDS011;20194;50.950;5.346;2023-05-28T04:04:32;18.00;;;8.43;;
33902;SDS011;20194;50.950;5.346;2023-05-28T04:06:58;15.68;;;8.50;;
33902;SDS011;20194;50.950;5.346;2023-05-28T04:09:23;19.98;;;9.25;;
33902;SDS011;20194;50.950;5.346;2023-05-28T04:11:49;19.55;;;9.43;;
33902;SDS011;20194;50.950;5.346;2023-05-28T04:14:15;17.65;;;8.20;;
33902;SDS011;20194;50.950;5.346;2023-05-28T04:16:41;20.02;;;8.32;;
33902;SDS011;20194;50.950;5.346;2023-05-28T04:19:07;18.42;;;8.70;;
33902;SDS011;20194;50.950;5.346;2023-05-28T04:21:33;17.85;;;9.13;;
33902;SDS011;20194;50.950;5.346;2023-05-28T04:23:58;17.83;;;8.65;;
33902;SDS011;20194;50.950;5.346;2023-05-28T04:26:25;20.55;;;8.95;;
33902;SDS011;20194;50.950;5.346;2023-05-28T04:28:51;18.33;;;9.15;;
33902;SDS011;20194;50.950;5.346;2023-05-28T04:31:18;18.98;;;8.85;;
33902;SDS011;20194;50.950;5.346;2023-05-28T04:33:43;22.55;;;8.88;;
33902;SDS011;20194;50.950;5.346;2023-05-28T04:36:13;14.95;;;8.57;;
33902;SDS011;20194;50.950;5.346;2023-05-28T04:38:38;16.58;;;8.88;;
33902;SDS011;20194;50.950;5.346;2023-05-28T04:41:05;23.40;;;9.70;;
33902;SDS011;20194;50.950;5.346;2023-05-28T04:43:31;23.15;;;8.35;;
33902;SDS011;20194;50.950;5.346;2023-05-28T04:45:58;23.50;;;10.70;;
33902;SDS011;20194;50.950;5.346;2023-05-28T04:48:24;22.52;;;9.25;;
33902;SDS011;20194;50.950;5.346;2023-05-28T04:50:51;23.98;;;9.50;;
33902;SDS011;20194;50.950;5.346;2023-05-28T04:53:16;20.65;;;9.27;;
33902;SDS011;20194;50.950;5.346;2023-05-28T04:55:42;16.35;;;8.88;;
33902;SDS011;20194;50.950;5.346;2023-05-28T04:58:09;19.85;;;9.18;;
33902;SDS011;20194;50.950;5.346;2023-05-28T05:00:35;17.70;;;9.52;;
33902;SDS011;20194;50.950;5.346;2023-05-28T05:03:00;20.05;;;9.75;;
33902;SDS011;20194;50.950;5.346;2023-05-28T05:05:27;19.17;;;9.75;;
33902;SDS011;20194;50.950;5.346;2023-05-28T05:07:52;19.50;;;9.13;;
33902;SDS011;20194;50.950;5.346;2023-05-28T05:10:19;18.80;;;9.35;;
33902;SDS011;20194;50.950;5.346;2023-05-28T05:12:44;21.05;;;9.23;;
33902;SDS011;20194;50.950;5.346;2023-05-28T05:15:10;20.85;;;9.93;;
33902;SDS011;20194;50.950;5.346;2023-05-28T05:17:36;21.75;;;9.38;;
33902;SDS011;20194;50.950;5.346;2023-05-28T05:20:02;20.77;;;10.15;;
33902;SDS011;20194;50.950;5.346;2023-05-28T05:22:30;25.70;;;10.00;;
33902;SDS011;20194;50.950;5.346;2023-05-28T05:24:56;26.00;;;11.57;;
33902;SDS011;20194;50.950;5.346;2023-05-28T05:27:21;23.38;;;10.43;;
33902;SDS011;20194;50.950;5.346;2023-05-28T05:29:47;24.00;;;10.98;;
33902;SDS011;20194;50.950;5.346;2023-05-28T05:32:13;20.85;;;10.77;;
33902;SDS011;20194;50.950;5.346;2023-05-28T05:34:39;26.17;;;10.45;;
33902;SDS011;20194;50.950;5.346;2023-05-28T05:37:05;20.77;;;9.52;;
33902;SDS011;20194;50.950;5.346;2023-05-28T05:39:31;27.80;;;10.48;;
33902;SDS011;20194;50.950;5.346;2023-05-28T05:41:57;25.58;;;10.50;;
33902;SDS011;20194;50.950;5.346;2023-05-28T05:44:23;21.35;;;10.23;;
33902;SDS011;20194;50.950;5.346;2023-05-28T05:46:48;23.25;;;9.65;;
33902;SDS011;20194;50.950;5.346;2023-05-28T05:49:14;27.00;;;10.55;;
33902;SDS011;20194;50.950;5.346;2023-05-28T05:51:40;26.63;;;11.65;;
33902;SDS011;20194;50.950;5.346;2023-05-28T05:54:05;22.98;;;10.20;;
33902;SDS011;20194;50.950;5.346;2023-05-28T05:56:32;26.75;;;10.30;;
33902;SDS011;20194;50.950;5.346;2023-05-28T05:58:59;24.23;;;11.57;;
33902;SDS011;20194;50.950;5.346;2023-05-28T06:01:24;19.77;;;9.20;;
33902;SDS011;20194;50.950;5.346;2023-05-28T06:03:50;20.83;;;10.00;;
33902;SDS011;20194;50.950;5.346;2023-05-28T06:06:16;20.75;;;9.40;;
33902;SDS011;20194;50.950;5.346;2023-05-28T06:08:42;20.70;;;9.93;;
33902;SDS011;20194;50.950;5.346;2023-05-28T06:11:08;21.75;;;9.73;;
33902;SDS011;20194;50.950;5.346;2023-05-28T06:13:35;20.70;;;9.70;;
33902;SDS011;20194;50.950;5.346;2023-05-28T06:16:01;21.55;;;9.43;;
33902;SDS011;20194;50.950;5.346;2023-05-28T06:18:29;19.08;;;9.40;;
33902;SDS011;20194;50.950;5.346;2023-05-28T06:20:55;21.20;;;9.82;;
33902;SDS011;20194;50.950;5.346;2023-05-28T06:23:21;19.65;;;9.43;;
33902;SDS011;20194;50.950;5.346;2023-05-28T06:25:47;19.92;;;8.25;;
33902;SDS011;20194;50.950;5.346;2023-05-28T06:28:13;26.10;;;10.57;;
33902;SDS011;20194;50.950;5.346;2023-05-28T06:30:39;19.77;;;9.32;;
33902;SDS011;20194;50.950;5.346;2023-05-28T06:33:05;18.70;;;9.60;;
33902;SDS011;20194;50.950;5.346;2023-05-28T06:35:31;24.00;;;10.15;;
33902;SDS011;20194;50.950;5.346;2023-05-28T06:37:57;26.15;;;10.10;;
33902;SDS011;20194;50.950;5.346;2023-05-28T06:40:23;19.30;;;10.02;;
33902;SDS011;20194;50.950;5.346;2023-05-28T06:42:49;17.48;;;8.02;;
33902;SDS011;20194;50.950;5.346;2023-05-28T06:45:15;19.40;;;9.23;;
33902;SDS011;20194;50.950;5.346;2023-05-28T06:47:41;23.50;;;9.15;;
33902;SDS011;20194;50.950;5.346;2023-05-28T06:50:07;20.52;;;10.07;;
33902;SDS011;20194;50.950;5.346;2023-05-28T06:52:33;25.00;;;9.93;;
33902;SDS011;20194;50.950;5.346;2023-05-28T06:54:58;15.55;;;7.88;;
33902;SDS011;20194;50.950;5.346;2023-05-28T06:57:24;25.33;;;10.82;;
33902;SDS011;20194;50.950;5.346;2023-05-28T06:59:50;19.25;;;9.70;;
33902;SDS011;20194;50.950;5.346;2023-05-28T07:02:16;18.17;;;9.07;;
33902;SDS011;20194;50.950;5.346;2023-05-28T07:04:41;22.38;;;9.45;;
33902;SDS011;20194;50.950;5.346;2023-05-28T07:07:07;22.85;;;10.20;;
33902;SDS011;20194;50.950;5.346;2023-05-28T07:09:33;17.98;;;9.40;;
33902;SDS011;20194;50.950;5.346;2023-05-28T07:11:59;25.38;;;10.32;;
33902;SDS011;20194;50.950;5.346;2023-05-28T07:14:25;22.48;;;10.45;;
33902;SDS011;20194;50.950;5.346;2023-05-28T07:16:52;20.20;;;9.75;;
33902;SDS011;20194;50.950;5.346;2023-05-28T07:19:18;22.55;;;9.98;;
33902;SDS011;20194;50.950;5.346;2023-05-28T07:21:45;17.65;;;9.48;;
33902;SDS011;20194;50.950;5.346;2023-05-28T07:24:11;19.40;;;9.90;;
33902;SDS011;20194;50.950;5.346;2023-05-28T07:26:37;20.42;;;8.73;;
33902;SDS011;20194;50.950;5.346;2023-05-28T07:29:03;18.48;;;9.35;;
33902;SDS011;20194;50.950;5.346;2023-05-28T07:31:28;19.70;;;10.02;;
33902;SDS011;20194;50.950;5.346;2023-05-28T07:33:56;23.35;;;10.38;;
33902;SDS011;20194;50.950;5.346;2023-05-28T07:36:22;21.58;;;9.65;;
33902;SDS011;20194;50.950;5.346;2023-05-28T07:38:48;22.52;;;11.18;;
33902;SDS011;20194;50.950;5.346;2023-05-28T07:41:14;17.60;;;9.27;;
33902;SDS011;20194;50.950;5.346;2023-05-28T07:43:39;23.52;;;9.93;;
33902;SDS011;20194;50.950;5.346;2023-05-28T07:46:05;22.20;;;10.13;;
33902;SDS011;20194;50.950;5.346;2023-05-28T07:48:31;17.10;;;9.23;;
33902;SDS011;20194;50.950;5.346;2023-05-28T07:50:57;15.25;;;8.07;;
33902;SDS011;20194;50.950;5.346;2023-05-28T07:53:24;24.75;;;9.52;;
33902;SDS011;20194;50.950;5.346;2023-05-28T07:55:51;17.25;;;8.38;;
33902;SDS011;20194;50.950;5.346;2023-05-28T07:58:18;22.45;;;8.55;;
33902;SDS011;20194;50.950;5.346;2023-05-28T08:00:44;16.35;;;8.80;;
33902;SDS011;20194;50.950;5.346;2023-05-28T08:03:09;18.13;;;8.48;;
33902;SDS011;20194;50.950;5.346;2023-05-28T08:05:36;19.67;;;8.40;;
33902;SDS011;20194;50.950;5.346;2023-05-28T08:08:02;18.30;;;9.25;;
33902;SDS011;20194;50.950;5.346;2023-05-28T08:10:28;19.73;;;9.32;;
33902;SDS011;20194;50.950;5.346;2023-05-28T08:12:54;15.48;;;8.50;;
33902;SDS011;20194;50.950;5.346;2023-05-28T08:15:20;15.90;;;7.18;;
33902;SDS011;20194;50.950;5.346;2023-05-28T08:17:46;23.10;;;8.60;;
33902;SDS011;20194;50.950;5.346;2023-05-28T08:20:12;16.17;;;8.05;;
33902;SDS011;20194;50.950;5.346;2023-05-28T08:22:38;12.68;;;6.88;;
33902;SDS011;20194;50.950;5.346;2023-05-28T08:25:04;15.20;;;8.27;;
33902;SDS011;20194;50.950;5.346;2023-05-28T08:27:33;18.83;;;6.65;;
33902;SDS011;20194;50.950;5.346;2023-05-28T08:30:00;15.20;;;7.47;;
33902;SDS011;20194;50.950;5.346;2023-05-28T08:32:26;15.15;;;7.30;;
33902;SDS011;20194;50.950;5.346;2023-05-28T08:34:53;14.88;;;7.22;;
33902;SDS011;20194;50.950;5.346;2023-05-28T08:37:19;17.15;;;7.28;;
33902;SDS011;20194;50.950;5.346;2023-05-28T08:39:45;15.15;;;7.10;;
33902;SDS011;20194;50.950;5.346;2023-05-28T08:42:11;15.82;;;6.80;;
33902;SDS011;20194;50.950;5.346;2023-05-28T08:44:36;17.33;;;7.25;;
33902;SDS011;20194;50.950;5.346;2023-05-28T08:47:02;19.25;;;7.28;;
33902;SDS011;20194;50.950;5.346;2023-05-28T08:49:33;13.93;;;6.05;;
33902;SDS011;20194;50.950;5.346;2023-05-28T08:52:07;13.65;;;5.53;;
33902;SDS011;20194;50.950;5.346;2023-05-28T08:54:35;15.07;;;6.63;;
33902;SDS011;20194;50.950;5.346;2023-05-28T08:57:02;18.75;;;7.10;;
33902;SDS011;20194;50.950;5.346;2023-05-28T08:59:28;13.32;;;6.57;;
33902;SDS011;20194;50.950;5.346;2023-05-28T09:01:56;18.58;;;6.47;;
33902;SDS011;20194;50.950;5.346;2023-05-28T09:04:21;12.27;;;5.90;;
33902;SDS011;20194;50.950;5.346;2023-05-28T09:06:48;11.95;;;4.93;;
33902;SDS011;20194;50.950;5.346;2023-05-28T09:09:19;14.43;;;6.28;;
33902;SDS011;20194;50.950;5.346;2023-05-28T09:11:45;18.02;;;5.28;;
33902;SDS011;20194;50.950;5.346;2023-05-28T09:14:13;13.93;;;5.22;;
33902;SDS011;20194;50.950;5.346;2023-05-28T09:16:40;15.35;;;6.00;;
33902;SDS011;20194;50.950;5.346;2023-05-28T09:19:06;13.75;;;5.70;;
33902;SDS011;20194;50.950;5.346;2023-05-28T09:21:32;16.48;;;5.47;;
33902;SDS011;20194;50.950;5.346;2023-05-28T09:23:58;15.60;;;5.72;;
33902;SDS011;20194;50.950;5.346;2023-05-28T09:26:32;13.02;;;5.28;;
33902;SDS011;20194;50.950;5.346;2023-05-28T09:28:59;9.07;;;4.38;;
33902;SDS011;20194;50.950;5.346;2023-05-28T09:31:28;12.18;;;4.78;;
33902;SDS011;20194;50.950;5.346;2023-05-28T09:33:58;12.55;;;5.07;;
33902;SDS011;20194;50.950;5.346;2023-05-28T09:36:25;11.18;;;5.13;;
33902;SDS011;20194;50.950;5.346;2023-05-28T09:38:51;11.57;;;5.03;;
33902;SDS011;20194;50.950;5.346;2023-05-28T09:41:18;15.85;;;5.50;;
33902;SDS011;20194;50.950;5.346;2023-05-28T09:43:45;17.48;;;5.85;;
33902;SDS011;20194;50.950;5.346;2023-05-28T09:46:19;17.77;;;5.35;;
33902;SDS011;20194;50.950;5.346;2023-05-28T09:48:45;9.98;;;4.40;;
33902;SDS011;20194;50.950;5.346;2023-05-28T09:51:11;12.35;;;5.60;;
33902;SDS011;20194;50.950;5.346;2023-05-28T09:53:39;11.25;;;5.28;;
33902;SDS011;20194;50.950;5.346;2023-05-28T09:56:10;12.43;;;4.90;;
33902;SDS011;20194;50.950;5.346;2023-05-28T09:58:38;13.65;;;4.50;;
33902;SDS011;20194;50.950;5.346;2023-05-28T10:01:08;12.23;;;5.65;;
33902;SDS011;20194;50.950;5.346;2023-05-28T10:03:42;10.90;;;4.68;;
33902;SDS011;20194;50.950;5.346;2023-05-28T10:06:10;13.05;;;4.97;;
33902;SDS011;20194;50.950;5.346;2023-05-28T10:08:38;12.88;;;5.15;;
33902;SDS011;20194;50.950;5.346;2023-05-28T10:11:05;12.32;;;5.35;;
33902;SDS011;20194;50.950;5.346;2023-05-28T10:13:34;11.95;;;5.25;;
33902;SDS011;20194;50.950;5.346;2023-05-28T10:16:00;9.50;;;4.43;;
33902;SDS011;20194;50.950;5.346;2023-05-28T10:18:27;9.00;;;4.07;;
33902;SDS011;20194;50.950;5.346;2023-05-28T10:20:53;8.68;;;4.32;;
33902;SDS011;20194;50.950;5.346;2023-05-28T10:23:19;12.55;;;3.97;;
33902;SDS011;20194;50.950;5.346;2023-05-28T10:25:47;12.20;;;4.38;;
33902;SDS011;20194;50.950;5.346;2023-05-28T10:28:16;9.77;;;4.45;;
33902;SDS011;20194;50.950;5.346;2023-05-28T10:30:44;9.55;;;4.18;;
33902;SDS011;20194;50.950;5.346;2023-05-28T10:33:11;11.35;;;4.65;;
33902;SDS011;20194;50.950;5.346;2023-05-28T10:35:53;12.63;;;4.72;;
33902;SDS011;20194;50.950;5.346;2023-05-28T10:38:21;16.88;;;4.88;;
33902;SDS011;20194;50.950;5.346;2023-05-28T10:40:48;8.25;;;4.47;;
33902;SDS011;20194;50.950;5.346;2023-05-28T10:46:54;12.40;;;4.78;;
33902;SDS011;20194;50.950;5.346;2023-05-28T10:59:57;17.27;;;7.55;;
33902;SDS011;20194;50.950;5.346;2023-05-28T11:02:29;12.43;;;4.88;;
33902;SDS011;20194;50.950;5.346;2023-05-28T11:05:00;10.25;;;3.63;;
33902;SDS011;20194;50.950;5.346;2023-05-28T11:09:57;8.75;;;3.97;;
33902;SDS011;20194;50.950;5.346;2023-05-28T11:12:29;14.30;;;4.75;;
33902;SDS011;20194;50.950;5.346;2023-05-28T11:14:57;13.15;;;4.57;;
33902;SDS011;20194;50.950;5.346;2023-05-28T11:17:23;12.85;;;4.25;;
33902;SDS011;20194;50.950;5.346;2023-05-28T11:19:49;9.40;;;4.32;;
33902;SDS011;20194;50.950;5.346;2023-05-28T11:22:17;18.98;;;4.45;;
33902;SDS011;20194;50.950;5.346;2023-05-28T11:25:03;15.13;;;4.90;;
33902;SDS011;20194;50.950;5.346;2023-05-28T11:27:35;13.57;;;4.68;;
33902;SDS011;20194;50.950;5.346;2023-05-28T11:32:36;9.20;;;4.75;;
33902;SDS011;20194;50.950;5.346;2023-05-28T11:35:02;12.70;;;4.75;;
33902;SDS011;20194;50.950;5.346;2023-05-28T11:37:33;11.35;;;4.53;;
33902;SDS011;20194;50.950;5.346;2023-05-28T11:40:00;16.05;;;4.97;;
33902;SDS011;20194;50.950;5.346;2023-05-28T11:42:30;8.02;;;4.70;;
33902;SDS011;20194;50.950;5.346;2023-05-28T11:44:56;12.52;;;4.35;;
33902;SDS011;20194;50.950;5.346;2023-05-28T11:47:23;11.20;;;5.07;;
33902;SDS011;20194;50.950;5.346;2023-05-28T11:49:49;9.18;;;4.30;;
33902;SDS011;20194;50.950;5.346;2023-05-28T11:52:16;17.45;;;5.53;;
33902;SDS011;20194;50.950;5.346;2023-05-28T11:54:46;15.02;;;4.43;;
33902;SDS011;20194;50.950;5.346;2023-05-28T11:57:24;14.70;;;4.90;;
33902;SDS011;20194;50.950;5.346;2023-05-28T12:00:32;9.40;;;4.72;;
33902;SDS011;20194;50.950;5.346;2023-05-28T12:02:45;17.40;;;5.40;;
33902;SDS011;20194;50.950;5.346;2023-05-28T12:05:12;13.95;;;5.75;;
33902;SDS011;20194;50.950;5.346;2023-05-28T12:07:43;8.68;;;4.70;;
33902;SDS011;20194;50.950;5.346;2023-05-28T12:10:11;15.68;;;4.18;;
33902;SDS011;20194;50.950;5.346;2023-05-28T12:12:39;13.38;;;4.18;;
33902;SDS011;20194;50.950;5.346;2023-05-28T12:15:06;10.27;;;4.72;;
33902;SDS011;20194;50.950;5.346;2023-05-28T12:17:36;14.95;;;5.22;;
33902;SDS011;20194;50.950;5.346;2023-05-28T12:22:40;11.95;;;4.85;;
33902;SDS011;20194;50.950;5.346;2023-05-28T12:25:06;10.80;;;4.28;;
33902;SDS011;20194;50.950;5.346;2023-05-28T12:27:32;7.07;;;3.75;;
33902;SDS011;20194;50.950;5.346;2023-05-28T12:29:59;11.18;;;4.40;;
33902;SDS011;20194;50.950;5.346;2023-05-28T12:32:25;10.90;;;4.32;;
33902;SDS011;20194;50.950;5.346;2023-05-28T12:34:52;11.25;;;4.72;;
33902;SDS011;20194;50.950;5.346;2023-05-28T12:37:21;11.45;;;5.00;;
33902;SDS011;20194;50.950;5.346;2023-05-28T12:39:47;10.45;;;4.45;;
33902;SDS011;20194;50.950;5.346;2023-05-28T12:42:13;11.25;;;4.82;;
33902;SDS011;20194;50.950;5.346;2023-05-28T12:44:38;10.70;;;4.25;;
33902;SDS011;20194;50.950;5.346;2023-05-28T12:47:04;14.93;;;5.22;;
33902;SDS011;20194;50.950;5.346;2023-05-28T12:49:30;8.57;;;3.90;;
33902;SDS011;20194;50.950;5.346;2023-05-28T12:51:57;8.73;;;4.82;;
33902;SDS011;20194;50.950;5.346;2023-05-28T12:54:22;9.50;;;5.13;;
33902;SDS011;20194;50.950;5.346;2023-05-28T12:56:48;9.27;;;4.68;;
33902;SDS011;20194;50.950;5.346;2023-05-28T12:59:20;9.85;;;4.30;;
33902;SDS011;20194;50.950;5.346;2023-05-28T13:01:50;13.52;;;5.40;;
33902;SDS011;20194;50.950;5.346;2023-05-28T13:04:16;9.95;;;4.38;;
33902;SDS011;20194;50.950;5.346;2023-05-28T13:06:43;10.77;;;4.97;;
33902;SDS011;20194;50.950;5.346;2023-05-28T13:09:12;9.20;;;4.25;;
33902;SDS011;20194;50.950;5.346;2023-05-28T13:11:39;16.10;;;4.90;;
33902;SDS011;20194;50.950;5.346;2023-05-28T13:14:09;7.90;;;4.18;;
33902;SDS011;20194;50.950;5.346;2023-05-28T13:16:35;9.57;;;4.15;;
33902;SDS011;20194;50.950;5.346;2023-05-28T13:19:03;9.20;;;4.47;;
33902;SDS011;20194;50.950;5.346;2023-05-28T13:21:29;9.52;;;4.57;;
33902;SDS011;20194;50.950;5.346;2023-05-28T13:24:00;11.23;;;5.13;;
33902;SDS011;20194;50.950;5.346;2023-05-28T13:26:28;11.93;;;4.70;;
33902;SDS011;20194;50.950;5.346;2023-05-28T13:28:56;12.98;;;5.15;;
33902;SDS011;20194;50.950;5.346;2023-05-28T13:31:22;13.73;;;4.78;;
33902;SDS011;20194;50.950;5.346;2023-05-28T13:33:48;10.52;;;4.65;;
33902;SDS011;20194;50.950;5.346;2023-05-28T13:36:14;10.82;;;4.47;;
33902;SDS011;20194;50.950;5.346;2023-05-28T13:38:43;13.30;;;5.00;;
33902;SDS011;20194;50.950;5.346;2023-05-28T13:41:10;11.30;;;5.10;;
33902;SDS011;20194;50.950;5.346;2023-05-28T13:43:38;9.05;;;4.28;;
33902;SDS011;20194;50.950;5.346;2023-05-28T13:46:04;10.73;;;5.45;;
33902;SDS011;20194;50.950;5.346;2023-05-28T13:48:30;11.52;;;4.93;;
33902;SDS011;20194;50.950;5.346;2023-05-28T13:50:56;12.93;;;4.10;;
33902;SDS011;20194;50.950;5.346;2023-05-28T13:53:22;9.38;;;4.13;;
33902;SDS011;20194;50.950;5.346;2023-05-28T13:55:48;11.00;;;4.30;;
33902;SDS011;20194;50.950;5.346;2023-05-28T13:58:14;9.93;;;4.78;;
33902;SDS011;20194;50.950;5.346;2023-05-28T14:00:40;15.20;;;4.95;;
33902;SDS011;20194;50.950;5.346;2023-05-28T14:03:06;8.35;;;4.20;;
33902;SDS011;20194;50.950;5.346;2023-05-28T14:05:33;8.75;;;3.70;;
33902;SDS011;20194;50.950;5.346;2023-05-28T14:08:00;6.57;;;3.55;;
33902;SDS011;20194;50.950;5.346;2023-05-28T14:10:26;12.55;;;4.40;;
33902;SDS011;20194;50.950;5.346;2023-05-28T14:12:52;14.07;;;4.00;;
33902;SDS011;20194;50.950;5.346;2023-05-28T14:15:19;10.73;;;5.05;;
33902;SDS011;20194;50.950;5.346;2023-05-28T14:17:45;10.02;;;4.45;;
33902;SDS011;20194;50.950;5.346;2023-05-28T14:20:11;9.23;;;3.95;;
33902;SDS011;20194;50.950;5.346;2023-05-28T14:22:36;9.23;;;4.10;;
33902;SDS011;20194;50.950;5.346;2023-05-28T14:25:02;9.38;;;3.75;;
33902;SDS011;20194;50.950;5.346;2023-05-28T14:27:28;6.10;;;3.58;;
33902;SDS011;20194;50.950;5.346;2023-05-28T14:29:54;7.60;;;4.18;;
33902;SDS011;20194;50.950;5.346;2023-05-28T14:32:20;7.78;;;4.07;;
33902;SDS011;20194;50.950;5.346;2023-05-28T14:34:46;7.45;;;3.78;;
33902;SDS011;20194;50.950;5.346;2023-05-28T14:37:12;64.70;;;34.35;;
33902;SDS011;20194;50.950;5.346;2023-05-28T14:39:37;9.43;;;3.90;;
33902;SDS011;20194;50.950;5.346;2023-05-28T14:42:03;10.80;;;3.95;;
33902;SDS011;20194;50.950;5.346;2023-05-28T14:44:30;12.70;;;3.97;;
33902;SDS011;20194;50.950;5.346;2023-05-28T14:46:56;12.52;;;4.20;;
33902;SDS011;20194;50.950;5.346;2023-05-28T14:49:22;8.13;;;3.67;;
33902;SDS011;20194;50.950;5.346;2023-05-28T14:51:49;9.30;;;3.97;;